sensor_id;sensor_type;location;lat;lon;timestamp;P1;durP1;ratioP1;P2;durP2;ratioP2
9888;SDS011;4983;42.112;24.738;2022-07-31T00:00:19;3.70;;;3.40;;
9888;SDS011;4983;42.112;24.738;2022-07-31T00:03:07;3.83;;;3.53;;
9888;SDS011;4983;42.112;24.738;2022-07-31T00:05:54;6.23;;;3.47;;
9888;SDS011;4983;42.112;24.738;2022-07-31T00:08:41;3.87;;;3.57;;
9888;SDS011;4983;42.112;24.738;2022-07-31T00:11:29;4.03;;;3.73;;
9888;SDS011;4983;42.112;24.738;2022-07-31T00:14:16;5.47;;;3.70;;
9888;SDS011;4983;42.112;24.738;2022-07-31T00:17:03;4.23;;;3.93;;
9888;SDS011;4983;42.112;24.738;2022-07-31T00:19:51;4.43;;;4.03;;
9888;SDS011;4983;42.112;24.738;2022-07-31T00:22:38;4.67;;;4.33;;
9888;SDS011;4983;42.112;24.738;2022-07-31T00:25:25;4.80;;;4.40;;
9888;SDS011;4983;42.112;24.738;2022-07-31T00:28:13;4.80;;;4.40;;
9888;SDS011;4983;42.112;24.738;2022-07-31T00:31:00;6.33;;;5.00;;
9888;SDS011;4983;42.112;24.738;2022-07-31T00:33:48;5.00;;;4.60;;
9888;SDS011;4983;42.112;24.738;2022-07-31T00:36:35;6.87;;;4.57;;
9888;SDS011;4983;42.112;24.738;2022-07-31T00:39:22;5.10;;;4.60;;
9888;SDS011;4983;42.112;24.738;2022-07-31T00:42:15;5.40;;;4.90;;
9888;SDS011;4983;42.112;24.738;2022-07-31T00:45:04;5.47;;;4.60;;
9888;SDS011;4983;42.112;24.738;2022-07-31T00:47:52;5.17;;;4.67;;
9888;SDS011;4983;42.112;24.738;2022-07-31T00:50:39;5.13;;;4.73;;
9888;SDS011;4983;42.112;24.738;2022-07-31T00:53:26;4.67;;;4.27;;
9888;SDS011;4983;42.112;24.738;2022-07-31T00:56:14;6.13;;;4.37;;
9888;SDS011;4983;42.112;24.738;2022-07-31T00:59:01;4.97;;;4.20;;
9888;SDS011;4983;42.112;24.738;2022-07-31T01:01:50;4.57;;;4.17;;
9888;SDS011;4983;42.112;24.738;2022-07-31T01:04:37;4.80;;;4.40;;
9888;SDS011;4983;42.112;24.738;2022-07-31T01:07:24;4.97;;;4.47;;
9888;SDS011;4983;42.112;24.738;2022-07-31T01:10:12;4.20;;;3.80;;
9888;SDS011;4983;42.112;24.738;2022-07-31T01:13:04;4.13;;;3.73;;
9888;SDS011;4983;42.112;24.738;2022-07-31T01:15:56;4.23;;;3.70;;
9888;SDS011;4983;42.112;24.738;2022-07-31T01:18:46;3.87;;;3.53;;
9888;SDS011;4983;42.112;24.738;2022-07-31T01:21:39;3.80;;;3.50;;
9888;SDS011;4983;42.112;24.738;2022-07-31T01:24:39;4.00;;;3.33;;
9888;SDS011;4983;42.112;24.738;2022-07-31T01:27:41;3.47;;;3.00;;
9888;SDS011;4983;42.112;24.738;2022-07-31T01:30:41;3.37;;;3.07;;
9888;SDS011;4983;42.112;24.738;2022-07-31T01:33:33;3.60;;;3.30;;
9888;SDS011;4983;42.112;24.738;2022-07-31T01:36:31;3.70;;;3.40;;
9888;SDS011;4983;42.112;24.738;2022-07-31T01:39:22;4.40;;;4.00;;
9888;SDS011;4983;42.112;24.738;2022-07-31T01:42:10;4.90;;;4.00;;
9888;SDS011;4983;42.112;24.738;2022-07-31T01:45:02;5.07;;;4.60;;
9888;SDS011;4983;42.112;24.738;2022-07-31T01:47:53;4.90;;;4.50;;
9888;SDS011;4983;42.112;24.738;2022-07-31T01:50:42;4.73;;;4.33;;
9888;SDS011;4983;42.112;24.738;2022-07-31T01:53:31;5.23;;;4.73;;
9888;SDS011;4983;42.112;24.738;2022-07-31T01:56:20;7.37;;;4.80;;
9888;SDS011;4983;42.112;24.738;2022-07-31T01:59:08;6.17;;;5.10;;
9888;SDS011;4983;42.112;24.738;2022-07-31T02:01:57;5.63;;;5.03;;
9888;SDS011;4983;42.112;24.738;2022-07-31T02:04:47;5.43;;;4.93;;
9888;SDS011;4983;42.112;24.738;2022-07-31T02:07:35;5.90;;;5.30;;
9888;SDS011;4983;42.112;24.738;2022-07-31T02:10:22;6.03;;;5.43;;
9888;SDS011;4983;42.112;24.738;2022-07-31T02:13:10;6.00;;;5.27;;
9888;SDS011;4983;42.112;24.738;2022-07-31T02:15:58;6.00;;;5.40;;
9888;SDS011;4983;42.112;24.738;2022-07-31T02:18:46;6.00;;;5.50;;
9888;SDS011;4983;42.112;24.738;2022-07-31T02:21:37;6.20;;;5.60;;
9888;SDS011;4983;42.112;24.738;2022-07-31T02:24:24;6.90;;;5.67;;
9888;SDS011;4983;42.112;24.738;2022-07-31T02:27:12;6.60;;;5.03;;
9888;SDS011;4983;42.112;24.738;2022-07-31T02:30:01;6.23;;;5.63;;
9888;SDS011;4983;42.112;24.738;2022-07-31T02:32:49;6.33;;;5.73;;
9888;SDS011;4983;42.112;24.738;2022-07-31T02:35:37;7.30;;;5.77;;
9888;SDS011;4983;42.112;24.738;2022-07-31T02:38:28;5.67;;;5.00;;
9888;SDS011;4983;42.112;24.738;2022-07-31T02:41:17;5.83;;;5.27;;
9888;SDS011;4983;42.112;24.738;2022-07-31T02:44:07;5.67;;;5.17;;
9888;SDS011;4983;42.112;24.738;2022-07-31T02:46:56;5.40;;;4.97;;
9888;SDS011;4983;42.112;24.738;2022-07-31T02:49:46;6.67;;;5.10;;
9888;SDS011;4983;42.112;24.738;2022-07-31T02:52:34;5.97;;;5.00;;
9888;SDS011;4983;42.112;24.738;2022-07-31T02:55:24;5.40;;;4.90;;
9888;SDS011;4983;42.112;24.738;2022-07-31T02:58:12;6.43;;;5.07;;
9888;SDS011;4983;42.112;24.738;2022-07-31T03:00:59;5.93;;;5.07;;
9888;SDS011;4983;42.112;24.738;2022-07-31T03:03:47;6.53;;;5.30;;
9888;SDS011;4983;42.112;24.738;2022-07-31T03:06:35;5.27;;;4.73;;
9888;SDS011;4983;42.112;24.738;2022-07-31T03:09:22;6.50;;;4.87;;
9888;SDS011;4983;42.112;24.738;2022-07-31T03:12:11;5.60;;;4.97;;
9888;SDS011;4983;42.112;24.738;2022-07-31T03:14:58;6.93;;;4.50;;
9888;SDS011;4983;42.112;24.738;2022-07-31T03:17:46;5.17;;;4.60;;
9888;SDS011;4983;42.112;24.738;2022-07-31T03:20:34;6.77;;;4.97;;
9888;SDS011;4983;42.112;24.738;2022-07-31T03:23:22;11.93;;;5.10;;
9888;SDS011;4983;42.112;24.738;2022-07-31T03:26:11;4.90;;;4.40;;
9888;SDS011;4983;42.112;24.738;2022-07-31T03:29:00;5.57;;;4.83;;
9888;SDS011;4983;42.112;24.738;2022-07-31T03:31:48;6.57;;;4.93;;
9888;SDS011;4983;42.112;24.738;2022-07-31T03:34:35;5.33;;;4.77;;
9888;SDS011;4983;42.112;24.738;2022-07-31T03:37:22;5.60;;;5.20;;
9888;SDS011;4983;42.112;24.738;2022-07-31T03:40:09;5.87;;;5.00;;
9888;SDS011;4983;42.112;24.738;2022-07-31T03:42:57;6.23;;;5.17;;
9888;SDS011;4983;42.112;24.738;2022-07-31T03:45:47;5.37;;;4.43;;
9888;SDS011;4983;42.112;24.738;2022-07-31T03:48:35;9.33;;;5.40;;
9888;SDS011;4983;42.112;24.738;2022-07-31T03:51:22;6.70;;;4.87;;
9888;SDS011;4983;42.112;24.738;2022-07-31T03:54:10;4.40;;;4.00;;
9888;SDS011;4983;42.112;24.738;2022-07-31T03:56:57;4.90;;;4.10;;
9888;SDS011;4983;42.112;24.738;2022-07-31T03:59:45;10.70;;;5.20;;
9888;SDS011;4983;42.112;24.738;2022-07-31T04:02:35;6.80;;;4.10;;
9888;SDS011;4983;42.112;24.738;2022-07-31T04:05:23;6.83;;;4.60;;
9888;SDS011;4983;42.112;24.738;2022-07-31T04:08:10;9.13;;;4.40;;
9888;SDS011;4983;42.112;24.738;2022-07-31T04:10:57;4.77;;;4.00;;
9888;SDS011;4983;42.112;24.738;2022-07-31T04:13:44;7.67;;;4.40;;
9888;SDS011;4983;42.112;24.738;2022-07-31T04:16:31;4.93;;;4.53;;
9888;SDS011;4983;42.112;24.738;2022-07-31T04:19:19;17.50;;;6.70;;
9888;SDS011;4983;42.112;24.738;2022-07-31T04:22:06;6.67;;;4.33;;
9888;SDS011;4983;42.112;24.738;2022-07-31T04:24:53;6.77;;;4.47;;
9888;SDS011;4983;42.112;24.738;2022-07-31T04:27:40;6.20;;;4.23;;
9888;SDS011;4983;42.112;24.738;2022-07-31T04:30:28;4.83;;;4.33;;
9888;SDS011;4983;42.112;24.738;2022-07-31T04:33:15;7.20;;;5.10;;
9888;SDS011;4983;42.112;24.738;2022-07-31T04:36:04;20.83;;;6.63;;
9888;SDS011;4983;42.112;24.738;2022-07-31T04:38:51;6.03;;;4.53;;
9888;SDS011;4983;42.112;24.738;2022-07-31T04:41:38;9.73;;;5.17;;
9888;SDS011;4983;42.112;24.738;2022-07-31T04:44:05;6.00;;;4.73;;
9888;SDS011;4983;42.112;24.738;2022-07-31T04:46:33;6.80;;;4.43;;
9888;SDS011;4983;42.112;24.738;2022-07-31T04:49:03;6.63;;;4.67;;
9888;SDS011;4983;42.112;24.738;2022-07-31T04:51:32;6.03;;;4.13;;
9888;SDS011;4983;42.112;24.738;2022-07-31T04:54:00;6.00;;;3.80;;
9888;SDS011;4983;42.112;24.738;2022-07-31T04:56:29;6.60;;;4.23;;
9888;SDS011;4983;42.112;24.738;2022-07-31T04:59:04;4.13;;;3.73;;
9888;SDS011;4983;42.112;24.738;2022-07-31T05:01:37;4.50;;;4.10;;
9888;SDS011;4983;42.112;24.738;2022-07-31T05:04:09;8.07;;;4.30;;
9888;SDS011;4983;42.112;24.738;2022-07-31T05:06:40;9.27;;;4.80;;
9888;SDS011;4983;42.112;24.738;2022-07-31T05:09:23;9.60;;;4.93;;
9888;SDS011;4983;42.112;24.738;2022-07-31T05:11:52;4.50;;;3.90;;
9888;SDS011;4983;42.112;24.738;2022-07-31T05:14:19;4.30;;;4.00;;
9888;SDS011;4983;42.112;24.738;2022-07-31T05:16:46;5.97;;;3.70;;
9888;SDS011;4983;42.112;24.738;2022-07-31T05:19:14;4.90;;;3.87;;
9888;SDS011;4983;42.112;24.738;2022-07-31T05:21:44;5.13;;;4.17;;
9888;SDS011;4983;42.112;24.738;2022-07-31T05:24:11;7.97;;;4.13;;
9888;SDS011;4983;42.112;24.738;2022-07-31T05:26:38;7.87;;;4.30;;
9888;SDS011;4983;42.112;24.738;2022-07-31T05:29:05;6.37;;;3.90;;
9888;SDS011;4983;42.112;24.738;2022-07-31T05:31:32;5.50;;;3.83;;
9888;SDS011;4983;42.112;24.738;2022-07-31T05:33:59;8.10;;;4.07;;
9888;SDS011;4983;42.112;24.738;2022-07-31T05:36:25;3.97;;;3.60;;
9888;SDS011;4983;42.112;24.738;2022-07-31T05:38:54;22.87;;;6.20;;
9888;SDS011;4983;42.112;24.738;2022-07-31T05:41:22;11.10;;;4.57;;
9888;SDS011;4983;42.112;24.738;2022-07-31T05:43:49;5.13;;;3.57;;
9888;SDS011;4983;42.112;24.738;2022-07-31T05:46:15;5.37;;;3.73;;
9888;SDS011;4983;42.112;24.738;2022-07-31T05:48:42;7.03;;;6.53;;
9888;SDS011;4983;42.112;24.738;2022-07-31T05:51:10;3.67;;;3.30;;
9888;SDS011;4983;42.112;24.738;2022-07-31T05:53:39;4.90;;;3.70;;
9888;SDS011;4983;42.112;24.738;2022-07-31T05:56:08;9.63;;;7.20;;
9888;SDS011;4983;42.112;24.738;2022-07-31T05:58:35;5.43;;;3.70;;
9888;SDS011;4983;42.112;24.738;2022-07-31T06:01:02;11.57;;;6.00;;
9888;SDS011;4983;42.112;24.738;2022-07-31T06:03:29;6.67;;;4.60;;
9888;SDS011;4983;42.112;24.738;2022-07-31T06:06:00;3.50;;;3.20;;
9888;SDS011;4983;42.112;24.738;2022-07-31T06:08:30;4.07;;;3.40;;
9888;SDS011;4983;42.112;24.738;2022-07-31T06:10:57;5.70;;;5.10;;
9888;SDS011;4983;42.112;24.738;2022-07-31T06:13:27;3.80;;;3.40;;
9888;SDS011;4983;42.112;24.738;2022-07-31T06:15:55;5.77;;;4.10;;
9888;SDS011;4983;42.112;24.738;2022-07-31T06:18:22;7.10;;;6.50;;
9888;SDS011;4983;42.112;24.738;2022-07-31T06:20:49;4.70;;;4.30;;
9888;SDS011;4983;42.112;24.738;2022-07-31T06:23:16;9.50;;;4.43;;
9888;SDS011;4983;42.112;24.738;2022-07-31T06:25:43;6.00;;;3.63;;
9888;SDS011;4983;42.112;24.738;2022-07-31T06:28:10;4.40;;;3.67;;
9888;SDS011;4983;42.112;24.738;2022-07-31T06:30:38;3.70;;;3.40;;
9888;SDS011;4983;42.112;24.738;2022-07-31T06:33:05;4.93;;;4.37;;
9888;SDS011;4983;42.112;24.738;2022-07-31T06:35:32;6.93;;;4.13;;
9888;SDS011;4983;42.112;24.738;2022-07-31T06:37:58;4.30;;;4.00;;
9888;SDS011;4983;42.112;24.738;2022-07-31T06:40:25;4.50;;;4.10;;
9888;SDS011;4983;42.112;24.738;2022-07-31T06:42:53;4.23;;;3.90;;
9888;SDS011;4983;42.112;24.738;2022-07-31T06:45:20;4.73;;;4.23;;
9888;SDS011;4983;42.112;24.738;2022-07-31T06:47:50;4.40;;;3.63;;
9888;SDS011;4983;42.112;24.738;2022-07-31T06:50:17;4.03;;;3.73;;
9888;SDS011;4983;42.112;24.738;2022-07-31T06:52:44;4.40;;;4.00;;
9888;SDS011;4983;42.112;24.738;2022-07-31T06:55:11;4.60;;;4.20;;
9888;SDS011;4983;42.112;24.738;2022-07-31T06:57:37;4.23;;;3.83;;
9888;SDS011;4983;42.112;24.738;2022-07-31T07:00:05;5.03;;;4.53;;
9888;SDS011;4983;42.112;24.738;2022-07-31T07:02:34;4.17;;;3.83;;
9888;SDS011;4983;42.112;24.738;2022-07-31T07:05:03;4.63;;;4.17;;
9888;SDS011;4983;42.112;24.738;2022-07-31T07:07:33;4.80;;;4.40;;
9888;SDS011;4983;42.112;24.738;2022-07-31T07:10:01;5.03;;;4.37;;
9888;SDS011;4983;42.112;24.738;2022-07-31T07:12:28;5.50;;;4.77;;
9888;SDS011;4983;42.112;24.738;2022-07-31T07:14:55;6.07;;;4.93;;
9888;SDS011;4983;42.112;24.738;2022-07-31T07:17:23;9.30;;;5.43;;
9888;SDS011;4983;42.112;24.738;2022-07-31T07:19:50;5.50;;;5.10;;
9888;SDS011;4983;42.112;24.738;2022-07-31T07:22:19;6.63;;;5.27;;
9888;SDS011;4983;42.112;24.738;2022-07-31T07:24:46;7.00;;;5.47;;
9888;SDS011;4983;42.112;24.738;2022-07-31T07:27:12;6.63;;;5.83;;
9888;SDS011;4983;42.112;24.738;2022-07-31T07:29:40;8.73;;;6.30;;
9888;SDS011;4983;42.112;24.738;2022-07-31T07:32:07;6.10;;;5.60;;
9888;SDS011;4983;42.112;24.738;2022-07-31T07:34:34;5.97;;;5.47;;
9888;SDS011;4983;42.112;24.738;2022-07-31T07:37:01;6.10;;;5.60;;
9888;SDS011;4983;42.112;24.738;2022-07-31T07:39:29;5.67;;;5.20;;
9888;SDS011;4983;42.112;24.738;2022-07-31T07:41:57;6.40;;;5.90;;
9888;SDS011;4983;42.112;24.738;2022-07-31T07:44:24;7.83;;;5.90;;
9888;SDS011;4983;42.112;24.738;2022-07-31T07:46:51;7.50;;;5.87;;
9888;SDS011;4983;42.112;24.738;2022-07-31T07:49:18;6.00;;;5.37;;
9888;SDS011;4983;42.112;24.738;2022-07-31T07:51:45;6.87;;;6.20;;
9888;SDS011;4983;42.112;24.738;2022-07-31T07:54:12;6.20;;;5.60;;
9888;SDS011;4983;42.112;24.738;2022-07-31T07:56:41;6.27;;;5.70;;
9888;SDS011;4983;42.112;24.738;2022-07-31T07:59:09;7.37;;;5.43;;
9888;SDS011;4983;42.112;24.738;2022-07-31T08:01:36;6.50;;;6.00;;
9888;SDS011;4983;42.112;24.738;2022-07-31T08:04:03;6.10;;;5.60;;
9888;SDS011;4983;42.112;24.738;2022-07-31T08:06:30;9.70;;;6.20;;
9888;SDS011;4983;42.112;24.738;2022-07-31T08:08:57;5.73;;;5.33;;
9888;SDS011;4983;42.112;24.738;2022-07-31T08:11:24;7.03;;;6.17;;
9888;SDS011;4983;42.112;24.738;2022-07-31T08:13:53;6.43;;;5.83;;
9888;SDS011;4983;42.112;24.738;2022-07-31T08:16:20;6.23;;;5.60;;
9888;SDS011;4983;42.112;24.738;2022-07-31T08:18:48;6.33;;;5.80;;
9888;SDS011;4983;42.112;24.738;2022-07-31T08:21:17;6.90;;;6.20;;
9888;SDS011;4983;42.112;24.738;2022-07-31T08:23:44;7.97;;;6.67;;
9888;SDS011;4983;42.112;24.738;2022-07-31T08:26:11;6.80;;;6.13;;
9888;SDS011;4983;42.112;24.738;2022-07-31T08:28:38;8.80;;;6.07;;
9888;SDS011;4983;42.112;24.738;2022-07-31T08:31:07;6.63;;;5.73;;
9888;SDS011;4983;42.112;24.738;2022-07-31T08:33:34;6.00;;;5.37;;
9888;SDS011;4983;42.112;24.738;2022-07-31T08:36:01;6.00;;;5.50;;
9888;SDS011;4983;42.112;24.738;2022-07-31T08:38:28;12.67;;;6.77;;
9888;SDS011;4983;42.112;24.738;2022-07-31T08:40:55;8.00;;;6.00;;
9888;SDS011;4983;42.112;24.738;2022-07-31T08:43:22;7.23;;;5.80;;
9888;SDS011;4983;42.112;24.738;2022-07-31T08:45:49;6.93;;;6.33;;
9888;SDS011;4983;42.112;24.738;2022-07-31T08:48:20;7.20;;;6.60;;
9888;SDS011;4983;42.112;24.738;2022-07-31T08:50:50;7.27;;;6.63;;
9888;SDS011;4983;42.112;24.738;2022-07-31T08:53:18;6.77;;;6.17;;
9888;SDS011;4983;42.112;24.738;2022-07-31T08:55:49;9.53;;;6.40;;
9888;SDS011;4983;42.112;24.738;2022-07-31T08:58:17;8.30;;;7.60;;
9888;SDS011;4983;42.112;24.738;2022-07-31T09:00:44;10.13;;;7.60;;
9888;SDS011;4983;42.112;24.738;2022-07-31T09:03:11;14.37;;;8.30;;
9888;SDS011;4983;42.112;24.738;2022-07-31T09:05:40;7.70;;;7.10;;
9888;SDS011;4983;42.112;24.738;2022-07-31T09:08:07;7.93;;;7.03;;
9888;SDS011;4983;42.112;24.738;2022-07-31T09:10:34;12.27;;;7.60;;
9888;SDS011;4983;42.112;24.738;2022-07-31T09:13:10;8.27;;;7.67;;
9888;SDS011;4983;42.112;24.738;2022-07-31T09:15:38;8.17;;;7.50;;
9888;SDS011;4983;42.112;24.738;2022-07-31T09:18:14;8.03;;;7.43;;
9888;SDS011;4983;42.112;24.738;2022-07-31T09:20:45;10.23;;;7.40;;
9888;SDS011;4983;42.112;24.738;2022-07-31T09:23:19;10.67;;;7.33;;
9888;SDS011;4983;42.112;24.738;2022-07-31T09:25:50;7.87;;;7.17;;
9888;SDS011;4983;42.112;24.738;2022-07-31T09:28:18;7.87;;;7.30;;
9888;SDS011;4983;42.112;24.738;2022-07-31T09:30:52;8.43;;;7.57;;
9888;SDS011;4983;42.112;24.738;2022-07-31T09:33:19;8.00;;;7.20;;
9888;SDS011;4983;42.112;24.738;2022-07-31T09:35:48;7.83;;;7.10;;
9888;SDS011;4983;42.112;24.738;2022-07-31T09:38:17;7.53;;;6.73;;
9888;SDS011;4983;42.112;24.738;2022-07-31T09:40:45;9.47;;;7.13;;
9888;SDS011;4983;42.112;24.738;2022-07-31T09:43:15;7.50;;;6.90;;
9888;SDS011;4983;42.112;24.738;2022-07-31T09:45:43;7.07;;;6.57;;
9888;SDS011;4983;42.112;24.738;2022-07-31T09:48:11;8.00;;;7.20;;
9888;SDS011;4983;42.112;24.738;2022-07-31T09:50:38;7.00;;;6.30;;
9888;SDS011;4983;42.112;24.738;2022-07-31T09:53:12;6.30;;;5.80;;
9888;SDS011;4983;42.112;24.738;2022-07-31T09:55:47;7.23;;;6.63;;
9888;SDS011;4983;42.112;24.738;2022-07-31T09:58:15;7.13;;;6.53;;
9888;SDS011;4983;42.112;24.738;2022-07-31T10:00:42;6.67;;;6.17;;
9888;SDS011;4983;42.112;24.738;2022-07-31T10:03:09;7.43;;;6.10;;
9888;SDS011;4983;42.112;24.738;2022-07-31T10:05:40;12.40;;;6.37;;
9888;SDS011;4983;42.112;24.738;2022-07-31T10:08:07;7.17;;;5.63;;
9888;SDS011;4983;42.112;24.738;2022-07-31T10:10:41;4.93;;;4.53;;
9888;SDS011;4983;42.112;24.738;2022-07-31T10:13:10;5.27;;;4.77;;
9888;SDS011;4983;42.112;24.738;2022-07-31T10:15:40;5.53;;;4.60;;
9888;SDS011;4983;42.112;24.738;2022-07-31T10:18:08;4.80;;;4.40;;
9888;SDS011;4983;42.112;24.738;2022-07-31T10:20:35;4.70;;;4.40;;
9888;SDS011;4983;42.112;24.738;2022-07-31T10:23:05;5.00;;;4.70;;
9888;SDS011;4983;42.112;24.738;2022-07-31T10:25:40;5.13;;;4.70;;
9888;SDS011;4983;42.112;24.738;2022-07-31T10:28:13;4.20;;;3.80;;
9888;SDS011;4983;42.112;24.738;2022-07-31T10:30:41;4.50;;;4.10;;
9888;SDS011;4983;42.112;24.738;2022-07-31T10:33:09;5.80;;;4.50;;
9888;SDS011;4983;42.112;24.738;2022-07-31T10:35:38;5.87;;;4.47;;
9888;SDS011;4983;42.112;24.738;2022-07-31T10:38:10;4.33;;;3.80;;
9888;SDS011;4983;42.112;24.738;2022-07-31T10:40:43;4.40;;;4.00;;
9888;SDS011;4983;42.112;24.738;2022-07-31T10:43:18;5.60;;;3.70;;
9888;SDS011;4983;42.112;24.738;2022-07-31T10:45:53;4.13;;;3.80;;
9888;SDS011;4983;42.112;24.738;2022-07-31T10:48:21;3.67;;;3.37;;
9888;SDS011;4983;42.112;24.738;2022-07-31T10:50:58;5.60;;;3.73;;
9888;SDS011;4983;42.112;24.738;2022-07-31T10:53:26;3.73;;;3.43;;
9888;SDS011;4983;42.112;24.738;2022-07-31T10:55:59;3.67;;;3.37;;
9888;SDS011;4983;42.112;24.738;2022-07-31T10:58:27;10.07;;;3.70;;
9888;SDS011;4983;42.112;24.738;2022-07-31T11:01:04;4.13;;;3.20;;
9888;SDS011;4983;42.112;24.738;2022-07-31T11:03:36;4.17;;;3.17;;
9888;SDS011;4983;42.112;24.738;2022-07-31T11:06:05;13.03;;;4.13;;
9888;SDS011;4983;42.112;24.738;2022-07-31T11:08:39;4.20;;;2.90;;
9888;SDS011;4983;42.112;24.738;2022-07-31T11:11:08;3.57;;;3.27;;
9888;SDS011;4983;42.112;24.738;2022-07-31T11:13:46;3.70;;;3.00;;
9888;SDS011;4983;42.112;24.738;2022-07-31T11:16:14;3.03;;;2.73;;
9888;SDS011;4983;42.112;24.738;2022-07-31T11:18:41;3.50;;;3.20;;
9888;SDS011;4983;42.112;24.738;2022-07-31T11:21:10;3.30;;;3.00;;
9888;SDS011;4983;42.112;24.738;2022-07-31T11:23:38;4.33;;;2.93;;
9888;SDS011;4983;42.112;24.738;2022-07-31T11:26:06;3.50;;;3.20;;
9888;SDS011;4983;42.112;24.738;2022-07-31T11:28:35;3.23;;;2.90;;
9888;SDS011;4983;42.112;24.738;2022-07-31T11:31:03;5.97;;;3.80;;
9888;SDS011;4983;42.112;24.738;2022-07-31T11:33:33;4.30;;;2.83;;
9888;SDS011;4983;42.112;24.738;2022-07-31T11:36:07;2.80;;;2.60;;
9888;SDS011;4983;42.112;24.738;2022-07-31T11:38:35;7.93;;;3.73;;
9888;SDS011;4983;42.112;24.738;2022-07-31T11:41:04;3.27;;;3.07;;
9888;SDS011;4983;42.112;24.738;2022-07-31T11:43:33;3.90;;;3.57;;
9888;SDS011;4983;42.112;24.738;2022-07-31T11:46:02;4.27;;;3.30;;
9888;SDS011;4983;42.112;24.738;2022-07-31T11:48:30;4.73;;;3.70;;
9888;SDS011;4983;42.112;24.738;2022-07-31T11:50:58;4.27;;;3.87;;
9888;SDS011;4983;42.112;24.738;2022-07-31T11:53:26;3.80;;;3.50;;
9888;SDS011;4983;42.112;24.738;2022-07-31T11:55:54;3.80;;;3.50;;
9888;SDS011;4983;42.112;24.738;2022-07-31T11:58:25;4.93;;;3.83;;
9888;SDS011;4983;42.112;24.738;2022-07-31T12:00:55;3.90;;;3.60;;
9888;SDS011;4983;42.112;24.738;2022-07-31T12:03:23;3.80;;;3.40;;
9888;SDS011;4983;42.112;24.738;2022-07-31T12:05:53;6.03;;;4.17;;
9888;SDS011;4983;42.112;24.738;2022-07-31T12:08:21;3.73;;;3.47;;
9888;SDS011;4983;42.112;24.738;2022-07-31T12:10:50;4.30;;;3.90;;
9888;SDS011;4983;42.112;24.738;2022-07-31T12:13:19;3.73;;;3.53;;
9888;SDS011;4983;42.112;24.738;2022-07-31T12:15:58;4.93;;;3.47;;
9888;SDS011;4983;42.112;24.738;2022-07-31T12:18:27;4.43;;;4.13;;
9888;SDS011;4983;42.112;24.738;2022-07-31T12:20:55;4.53;;;4.13;;
9888;SDS011;4983;42.112;24.738;2022-07-31T12:23:25;4.43;;;4.03;;
9888;SDS011;4983;42.112;24.738;2022-07-31T12:26:04;4.80;;;4.40;;
9888;SDS011;4983;42.112;24.738;2022-07-31T12:28:31;4.60;;;4.20;;
9888;SDS011;4983;42.112;24.738;2022-07-31T12:30:59;4.90;;;4.50;;
9888;SDS011;4983;42.112;24.738;2022-07-31T12:33:26;4.80;;;4.40;;
9888;SDS011;4983;42.112;24.738;2022-07-31T12:35:53;4.90;;;4.50;;
9888;SDS011;4983;42.112;24.738;2022-07-31T12:38:24;5.03;;;4.73;;
9888;SDS011;4983;42.112;24.738;2022-07-31T12:43:37;5.30;;;4.90;;
9888;SDS011;4983;42.112;24.738;2022-07-31T12:46:05;5.77;;;5.00;;
9888;SDS011;4983;42.112;24.738;2022-07-31T12:48:32;5.40;;;4.77;;
9888;SDS011;4983;42.112;24.738;2022-07-31T12:50:59;5.77;;;5.30;;
9888;SDS011;4983;42.112;24.738;2022-07-31T12:53:27;7.70;;;5.57;;
9888;SDS011;4983;42.112;24.738;2022-07-31T12:55:56;5.73;;;5.33;;
9888;SDS011;4983;42.112;24.738;2022-07-31T12:58:23;5.37;;;4.87;;
9888;SDS011;4983;42.112;24.738;2022-07-31T13:00:49;6.20;;;5.60;;
9888;SDS011;4983;42.112;24.738;2022-07-31T13:03:20;6.13;;;5.47;;
9888;SDS011;4983;42.112;24.738;2022-07-31T13:05:47;5.77;;;5.27;;
9888;SDS011;4983;42.112;24.738;2022-07-31T13:08:14;6.00;;;5.50;;
9888;SDS011;4983;42.112;24.738;2022-07-31T13:10:41;6.90;;;5.70;;
9888;SDS011;4983;42.112;24.738;2022-07-31T13:13:08;5.87;;;5.20;;
9888;SDS011;4983;42.112;24.738;2022-07-31T13:15:35;6.07;;;5.53;;
9888;SDS011;4983;42.112;24.738;2022-07-31T13:18:01;7.60;;;5.73;;
9888;SDS011;4983;42.112;24.738;2022-07-31T13:20:30;7.80;;;5.87;;
9888;SDS011;4983;42.112;24.738;2022-07-31T13:22:58;6.50;;;5.90;;
9888;SDS011;4983;42.112;24.738;2022-07-31T13:25:27;6.30;;;5.80;;
9888;SDS011;4983;42.112;24.738;2022-07-31T13:27:55;6.40;;;5.87;;
9888;SDS011;4983;42.112;24.738;2022-07-31T13:30:22;6.87;;;6.20;;
9888;SDS011;4983;42.112;24.738;2022-07-31T13:32:50;9.13;;;5.93;;
9888;SDS011;4983;42.112;24.738;2022-07-31T13:35:17;6.40;;;5.97;;
9888;SDS011;4983;42.112;24.738;2022-07-31T13:37:47;7.30;;;6.50;;
9888;SDS011;4983;42.112;24.738;2022-07-31T13:40:14;8.50;;;6.13;;
9888;SDS011;4983;42.112;24.738;2022-07-31T13:42:43;7.43;;;6.67;;
9888;SDS011;4983;42.112;24.738;2022-07-31T13:45:10;9.30;;;6.23;;
9888;SDS011;4983;42.112;24.738;2022-07-31T13:47:37;6.80;;;6.20;;
9888;SDS011;4983;42.112;24.738;2022-07-31T13:50:05;6.70;;;6.10;;
9888;SDS011;4983;42.112;24.738;2022-07-31T13:52:32;6.67;;;6.17;;
9888;SDS011;4983;42.112;24.738;2022-07-31T13:55:00;6.70;;;6.10;;
9888;SDS011;4983;42.112;24.738;2022-07-31T13:57:27;6.30;;;5.80;;
9888;SDS011;4983;42.112;24.738;2022-07-31T13:59:53;6.80;;;6.20;;
9888;SDS011;4983;42.112;24.738;2022-07-31T14:02:21;7.33;;;6.70;;
9888;SDS011;4983;42.112;24.738;2022-07-31T14:04:48;7.30;;;6.60;;
9888;SDS011;4983;42.112;24.738;2022-07-31T14:07:15;8.07;;;6.97;;
9888;SDS011;4983;42.112;24.738;2022-07-31T14:09:42;7.60;;;7.00;;
9888;SDS011;4983;42.112;24.738;2022-07-31T14:12:10;8.13;;;7.37;;
9888;SDS011;4983;42.112;24.738;2022-07-31T14:14:37;9.93;;;7.77;;
9888;SDS011;4983;42.112;24.738;2022-07-31T14:17:04;9.40;;;8.67;;
9888;SDS011;4983;42.112;24.738;2022-07-31T14:19:31;8.90;;;8.20;;
9888;SDS011;4983;42.112;24.738;2022-07-31T14:22:01;9.03;;;8.23;;
9888;SDS011;4983;42.112;24.738;2022-07-31T14:24:27;9.10;;;8.07;;
9888;SDS011;4983;42.112;24.738;2022-07-31T14:26:56;8.67;;;8.07;;
9888;SDS011;4983;42.112;24.738;2022-07-31T14:29:24;10.27;;;9.27;;
9888;SDS011;4983;42.112;24.738;2022-07-31T14:31:51;9.20;;;8.50;;
9888;SDS011;4983;42.112;24.738;2022-07-31T14:34:18;9.30;;;8.50;;
9888;SDS011;4983;42.112;24.738;2022-07-31T14:36:45;9.00;;;8.30;;
9888;SDS011;4983;42.112;24.738;2022-07-31T14:39:12;9.80;;;9.10;;
9888;SDS011;4983;42.112;24.738;2022-07-31T14:41:39;9.50;;;8.70;;
9888;SDS011;4983;42.112;24.738;2022-07-31T14:44:06;10.33;;;9.33;;
9888;SDS011;4983;42.112;24.738;2022-07-31T14:46:35;9.87;;;8.97;;
9888;SDS011;4983;42.112;24.738;2022-07-31T14:49:02;10.03;;;9.03;;
9888;SDS011;4983;42.112;24.738;2022-07-31T14:51:30;9.60;;;8.70;;
9888;SDS011;4983;42.112;24.738;2022-07-31T14:53:57;9.43;;;8.53;;
9888;SDS011;4983;42.112;24.738;2022-07-31T14:56:24;10.73;;;9.30;;
9888;SDS011;4983;42.112;24.738;2022-07-31T14:58:51;10.53;;;9.47;;
9888;SDS011;4983;42.112;24.738;2022-07-31T15:01:18;10.30;;;9.50;;
9888;SDS011;4983;42.112;24.738;2022-07-31T15:03:47;10.67;;;9.67;;
9888;SDS011;4983;42.112;24.738;2022-07-31T15:06:14;10.40;;;9.30;;
9888;SDS011;4983;42.112;24.738;2022-07-31T15:08:41;10.77;;;9.63;;
9888;SDS011;4983;42.112;24.738;2022-07-31T15:11:08;9.90;;;9.00;;
9888;SDS011;4983;42.112;24.738;2022-07-31T15:13:35;9.80;;;9.00;;
9888;SDS011;4983;42.112;24.738;2022-07-31T15:16:02;9.53;;;8.70;;
9888;SDS011;4983;42.112;24.738;2022-07-31T15:18:29;12.33;;;9.67;;
9888;SDS011;4983;42.112;24.738;2022-07-31T15:21:00;9.90;;;8.90;;
9888;SDS011;4983;42.112;24.738;2022-07-31T15:23:27;9.80;;;8.90;;
9888;SDS011;4983;42.112;24.738;2022-07-31T15:25:54;10.33;;;9.40;;
9888;SDS011;4983;42.112;24.738;2022-07-31T15:28:21;10.47;;;9.40;;
9888;SDS011;4983;42.112;24.738;2022-07-31T15:30:47;11.33;;;9.37;;
9888;SDS011;4983;42.112;24.738;2022-07-31T15:33:14;10.13;;;9.20;;
9888;SDS011;4983;42.112;24.738;2022-07-31T15:35:41;10.30;;;9.40;;
9888;SDS011;4983;42.112;24.738;2022-07-31T15:38:10;10.57;;;9.73;;
9888;SDS011;4983;42.112;24.738;2022-07-31T15:40:37;10.53;;;9.53;;
9888;SDS011;4983;42.112;24.738;2022-07-31T15:43:04;10.90;;;10.10;;